Terminal Aerodrome Forecast
Issued by NWS Cleveland, OH

Home | Current Version | Previous Version | Graphics & Text | Print | Product List | Glossary On
Versions: 1 2 3 4 5 6 7 8 9 10 11 12 13 14 15 16 17 18 19 20 21 22 23
000
FTUS41 KCLE 271502 AAB
TAFTOL
TAF AMD
KTOL 271502Z 2715/2812 07008KT P6SM BKN015
     FM271700 07008KT P6SM SCT045 SCT070
     FM280800 09004KT 6SM BR BKN200=

USA.gov is the U.S. government's official web portal to all federal, state and local government web resources and services.